sensor_id;sensor_type;location;lat;lon;timestamp;P1;durP1;ratioP1;P2;durP2;ratioP2
56680;SDS011;42558;52.388;13.390;2023-11-19T00:01:10;16.15;;;10.45;;
56680;SDS011;42558;52.388;13.390;2023-11-19T00:03:41;17.67;;;10.64;;
56680;SDS011;42558;52.388;13.390;2023-11-19T00:06:10;18.05;;;11.97;;
56680;SDS011;42558;52.388;13.390;2023-11-19T00:08:41;19.00;;;11.02;;
56680;SDS011;42558;52.388;13.390;2023-11-19T00:11:10;18.81;;;11.59;;
56680;SDS011;42558;52.388;13.390;2023-11-19T00:13:41;19.19;;;11.40;;
56680;SDS011;42558;52.388;13.390;2023-11-19T00:16:10;19.57;;;12.35;;
56680;SDS011;42558;52.388;13.390;2023-11-19T00:18:42;22.42;;;11.97;;
56680;SDS011;42558;52.388;13.390;2023-11-19T00:21:11;19.19;;;10.64;;
56680;SDS011;42558;52.388;13.390;2023-11-19T00:23:41;21.66;;;11.59;;
56680;SDS011;42558;52.388;13.390;2023-11-19T00:26:11;19.19;;;11.97;;
56680;SDS011;42558;52.388;13.390;2023-11-19T00:28:43;21.28;;;12.73;;
56680;SDS011;42558;52.388;13.390;2023-11-19T00:31:13;26.79;;;13.11;;
56680;SDS011;42558;52.388;13.390;2023-11-19T00:33:41;18.43;;;10.83;;
56680;SDS011;42558;52.388;13.390;2023-11-19T00:36:13;18.43;;;11.02;;
56680;SDS011;42558;52.388;13.390;2023-11-19T00:38:41;18.62;;;11.02;;
56680;SDS011;42558;52.388;13.390;2023-11-19T00:41:09;16.91;;;10.45;;
56680;SDS011;42558;52.388;13.390;2023-11-19T00:43:38;18.81;;;10.64;;
56680;SDS011;42558;52.388;13.390;2023-11-19T00:46:07;18.81;;;11.59;;
56680;SDS011;42558;52.388;13.390;2023-11-19T00:48:35;15.96;;;9.12;;
56680;SDS011;42558;52.388;13.390;2023-11-19T00:51:04;18.05;;;11.40;;
56680;SDS011;42558;52.388;13.390;2023-11-19T00:53:32;15.39;;;10.26;;
56680;SDS011;42558;52.388;13.390;2023-11-19T00:56:00;18.81;;;11.59;;
56680;SDS011;42558;52.388;13.390;2023-11-19T00:58:28;17.86;;;10.26;;
56680;SDS011;42558;52.388;13.390;2023-11-19T01:00:57;16.91;;;9.50;;
56680;SDS011;42558;52.388;13.390;2023-11-19T01:03:27;15.77;;;9.50;;
56680;SDS011;42558;52.388;13.390;2023-11-19T01:05:57;16.72;;;10.45;;
56680;SDS011;42558;52.388;13.390;2023-11-19T01:08:29;16.15;;;9.31;;
56680;SDS011;42558;52.388;13.390;2023-11-19T01:10:59;15.96;;;10.45;;
56680;SDS011;42558;52.388;13.390;2023-11-19T01:13:29;16.72;;;9.50;;
56680;SDS011;42558;52.388;13.390;2023-11-19T01:16:00;18.43;;;11.40;;
56680;SDS011;42558;52.388;13.390;2023-11-19T01:18:32;17.29;;;10.83;;
56680;SDS011;42558;52.388;13.390;2023-11-19T01:21:02;21.66;;;10.83;;
56680;SDS011;42558;52.388;13.390;2023-11-19T01:23:32;15.58;;;9.88;;
56680;SDS011;42558;52.388;13.390;2023-11-19T01:26:04;18.43;;;10.07;;
56680;SDS011;42558;52.388;13.390;2023-11-19T01:28:35;16.34;;;10.64;;
56680;SDS011;42558;52.388;13.390;2023-11-19T01:31:05;19.38;;;10.45;;
56680;SDS011;42558;52.388;13.390;2023-11-19T01:33:39;16.15;;;9.69;;
56680;SDS011;42558;52.388;13.390;2023-11-19T01:36:07;15.20;;;8.55;;
56680;SDS011;42558;52.388;13.390;2023-11-19T01:38:36;12.73;;;8.55;;
56680;SDS011;42558;52.388;13.390;2023-11-19T01:41:04;14.82;;;8.74;;
56680;SDS011;42558;52.388;13.390;2023-11-19T01:43:37;15.77;;;9.88;;
56680;SDS011;42558;52.388;13.390;2023-11-19T01:46:08;17.10;;;10.45;;
56680;SDS011;42558;52.388;13.390;2023-11-19T01:48:46;15.39;;;10.07;;
56680;SDS011;42558;52.388;13.390;2023-11-19T01:51:16;16.34;;;10.45;;
56680;SDS011;42558;52.388;13.390;2023-11-19T01:53:46;16.15;;;9.69;;
56680;SDS011;42558;52.388;13.390;2023-11-19T01:56:16;15.01;;;9.12;;
56680;SDS011;42558;52.388;13.390;2023-11-19T01:58:48;16.53;;;9.88;;
56680;SDS011;42558;52.388;13.390;2023-11-19T02:01:18;18.24;;;8.74;;
56680;SDS011;42558;52.388;13.390;2023-11-19T02:03:48;15.96;;;10.26;;
56680;SDS011;42558;52.388;13.390;2023-11-19T02:06:18;18.81;;;9.88;;
56680;SDS011;42558;52.388;13.390;2023-11-19T02:08:50;17.29;;;8.55;;
56680;SDS011;42558;52.388;13.390;2023-11-19T02:11:19;18.05;;;9.50;;
56680;SDS011;42558;52.388;13.390;2023-11-19T02:13:49;15.77;;;9.31;;
56680;SDS011;42558;52.388;13.390;2023-11-19T02:16:19;17.29;;;10.07;;
56680;SDS011;42558;52.388;13.390;2023-11-19T02:18:47;14.82;;;8.74;;
56680;SDS011;42558;52.388;13.390;2023-11-19T02:21:16;16.72;;;9.31;;
56680;SDS011;42558;52.388;13.390;2023-11-19T02:23:45;14.63;;;9.12;;
56680;SDS011;42558;52.388;13.390;2023-11-19T02:26:18;16.34;;;9.31;;
56680;SDS011;42558;52.388;13.390;2023-11-19T02:28:53;15.20;;;8.74;;
56680;SDS011;42558;52.388;13.390;2023-11-19T02:31:22;18.81;;;9.12;;
56680;SDS011;42558;52.388;13.390;2023-11-19T02:33:52;14.44;;;8.55;;
56680;SDS011;42558;52.388;13.390;2023-11-19T02:36:22;15.20;;;8.93;;
56680;SDS011;42558;52.388;13.390;2023-11-19T02:38:52;14.25;;;8.55;;
56680;SDS011;42558;52.388;13.390;2023-11-19T02:41:22;16.15;;;8.93;;
56680;SDS011;42558;52.388;13.390;2023-11-19T02:43:52;15.58;;;8.17;;
56680;SDS011;42558;52.388;13.390;2023-11-19T02:46:23;16.34;;;8.17;;
56680;SDS011;42558;52.388;13.390;2023-11-19T02:48:53;16.53;;;9.31;;
56680;SDS011;42558;52.388;13.390;2023-11-19T02:51:23;14.06;;;8.36;;
56680;SDS011;42558;52.388;13.390;2023-11-19T02:53:53;14.06;;;8.17;;
56680;SDS011;42558;52.388;13.390;2023-11-19T02:56:23;13.30;;;8.17;;
56680;SDS011;42558;52.388;13.390;2023-11-19T02:58:56;14.06;;;8.74;;
56680;SDS011;42558;52.388;13.390;2023-11-19T03:01:26;13.68;;;7.60;;
56680;SDS011;42558;52.388;13.390;2023-11-19T03:04:00;13.87;;;8.17;;
56680;SDS011;42558;52.388;13.390;2023-11-19T03:06:32;12.54;;;7.79;;
56680;SDS011;42558;52.388;13.390;2023-11-19T03:09:02;14.82;;;8.36;;
56680;SDS011;42558;52.388;13.390;2023-11-19T03:11:37;11.59;;;7.03;;
56680;SDS011;42558;52.388;13.390;2023-11-19T03:14:08;16.34;;;9.31;;
56680;SDS011;42558;52.388;13.390;2023-11-19T03:16:37;12.35;;;7.03;;
56680;SDS011;42558;52.388;13.390;2023-11-19T03:19:07;10.64;;;6.46;;
56680;SDS011;42558;52.388;13.390;2023-11-19T03:21:37;14.44;;;7.60;;
56680;SDS011;42558;52.388;13.390;2023-11-19T03:24:07;12.54;;;7.03;;
56680;SDS011;42558;52.388;13.390;2023-11-19T03:26:37;14.06;;;7.22;;
56680;SDS011;42558;52.388;13.390;2023-11-19T03:29:08;12.73;;;7.60;;
56680;SDS011;42558;52.388;13.390;2023-11-19T03:31:42;13.49;;;6.84;;
56680;SDS011;42558;52.388;13.390;2023-11-19T03:34:12;13.68;;;7.03;;
56680;SDS011;42558;52.388;13.390;2023-11-19T03:36:40;10.64;;;5.89;;
56680;SDS011;42558;52.388;13.390;2023-11-19T03:39:09;14.82;;;7.22;;
56680;SDS011;42558;52.388;13.390;2023-11-19T03:41:37;12.73;;;7.41;;
56680;SDS011;42558;52.388;13.390;2023-11-19T03:44:10;15.01;;;6.84;;
56680;SDS011;42558;52.388;13.390;2023-11-19T03:46:40;13.49;;;7.60;;
56680;SDS011;42558;52.388;13.390;2023-11-19T03:49:11;13.49;;;7.79;;
56680;SDS011;42558;52.388;13.390;2023-11-19T03:51:41;12.35;;;7.98;;
56680;SDS011;42558;52.388;13.390;2023-11-19T03:54:11;13.30;;;7.22;;
56680;SDS011;42558;52.388;13.390;2023-11-19T03:56:41;12.92;;;7.41;;
56680;SDS011;42558;52.388;13.390;2023-11-19T03:59:11;14.06;;;7.98;;
56680;SDS011;42558;52.388;13.390;2023-11-19T04:01:41;13.68;;;7.22;;
56680;SDS011;42558;52.388;13.390;2023-11-19T04:04:11;14.06;;;8.36;;
56680;SDS011;42558;52.388;13.390;2023-11-19T04:06:41;15.39;;;6.84;;
56680;SDS011;42558;52.388;13.390;2023-11-19T04:09:11;16.15;;;7.41;;
56680;SDS011;42558;52.388;13.390;2023-11-19T04:11:41;12.54;;;7.03;;
56680;SDS011;42558;52.388;13.390;2023-11-19T04:14:11;12.16;;;7.22;;
56680;SDS011;42558;52.388;13.390;2023-11-19T04:16:42;13.30;;;7.41;;
56680;SDS011;42558;52.388;13.390;2023-11-19T04:19:12;12.35;;;7.22;;
56680;SDS011;42558;52.388;13.390;2023-11-19T04:21:43;16.72;;;8.17;;
56680;SDS011;42558;52.388;13.390;2023-11-19T04:24:13;15.39;;;9.31;;
56680;SDS011;42558;52.388;13.390;2023-11-19T04:26:42;15.20;;;8.93;;
56680;SDS011;42558;52.388;13.390;2023-11-19T04:29:14;15.77;;;8.74;;
56680;SDS011;42558;52.388;13.390;2023-11-19T04:31:46;17.29;;;7.79;;
56680;SDS011;42558;52.388;13.390;2023-11-19T04:34:16;13.30;;;7.98;;
56680;SDS011;42558;52.388;13.390;2023-11-19T04:36:46;12.73;;;7.60;;
56680;SDS011;42558;52.388;13.390;2023-11-19T04:39:16;14.06;;;8.36;;
56680;SDS011;42558;52.388;13.390;2023-11-19T04:41:48;13.68;;;8.36;;
56680;SDS011;42558;52.388;13.390;2023-11-19T04:44:19;13.87;;;7.98;;
56680;SDS011;42558;52.388;13.390;2023-11-19T04:46:49;13.87;;;8.17;;
56680;SDS011;42558;52.388;13.390;2023-11-19T04:49:19;17.48;;;9.12;;
56680;SDS011;42558;52.388;13.390;2023-11-19T04:51:49;12.73;;;7.79;;
56680;SDS011;42558;52.388;13.390;2023-11-19T04:54:19;13.49;;;7.98;;
56680;SDS011;42558;52.388;13.390;2023-11-19T04:56:49;15.01;;;7.98;;
56680;SDS011;42558;52.388;13.390;2023-11-19T04:59:19;14.44;;;8.55;;
56680;SDS011;42558;52.388;13.390;2023-11-19T05:01:49;15.39;;;7.79;;
56680;SDS011;42558;52.388;13.390;2023-11-19T05:04:19;15.58;;;8.93;;
56680;SDS011;42558;52.388;13.390;2023-11-19T05:06:49;18.24;;;9.69;;
56680;SDS011;42558;52.388;13.390;2023-11-19T05:09:19;15.77;;;8.55;;
56680;SDS011;42558;52.388;13.390;2023-11-19T05:11:49;16.15;;;9.88;;
56680;SDS011;42558;52.388;13.390;2023-11-19T05:14:19;16.34;;;9.12;;
56680;SDS011;42558;52.388;13.390;2023-11-19T05:16:50;19.19;;;9.50;;
56680;SDS011;42558;52.388;13.390;2023-11-19T05:19:20;14.44;;;8.55;;
56680;SDS011;42558;52.388;13.390;2023-11-19T05:21:48;15.58;;;8.17;;
56680;SDS011;42558;52.388;13.390;2023-11-19T05:24:20;15.58;;;9.31;;
56680;SDS011;42558;52.388;13.390;2023-11-19T05:26:48;13.68;;;8.17;;
56680;SDS011;42558;52.388;13.390;2023-11-19T05:29:19;14.63;;;9.12;;
56680;SDS011;42558;52.388;13.390;2023-11-19T05:31:48;16.15;;;9.50;;
56680;SDS011;42558;52.388;13.390;2023-11-19T05:34:16;16.72;;;9.69;;
56680;SDS011;42558;52.388;13.390;2023-11-19T05:36:45;17.86;;;9.12;;
56680;SDS011;42558;52.388;13.390;2023-11-19T05:39:13;15.20;;;8.17;;
56680;SDS011;42558;52.388;13.390;2023-11-19T05:41:42;17.48;;;9.31;;
56680;SDS011;42558;52.388;13.390;2023-11-19T05:44:10;15.20;;;9.69;;
56680;SDS011;42558;52.388;13.390;2023-11-19T05:46:38;15.39;;;8.93;;
56680;SDS011;42558;52.388;13.390;2023-11-19T05:49:11;15.20;;;7.79;;
56680;SDS011;42558;52.388;13.390;2023-11-19T05:51:40;15.39;;;9.50;;
56680;SDS011;42558;52.388;13.390;2023-11-19T05:54:10;16.15;;;9.69;;
56680;SDS011;42558;52.388;13.390;2023-11-19T05:56:40;14.06;;;8.74;;
56680;SDS011;42558;52.388;13.390;2023-11-19T05:59:11;13.30;;;8.17;;
56680;SDS011;42558;52.388;13.390;2023-11-19T06:01:43;14.82;;;8.74;;
56680;SDS011;42558;52.388;13.390;2023-11-19T06:04:14;16.72;;;8.55;;
56680;SDS011;42558;52.388;13.390;2023-11-19T06:06:44;15.39;;;8.93;;
56680;SDS011;42558;52.388;13.390;2023-11-19T06:09:14;16.15;;;8.74;;
56680;SDS011;42558;52.388;13.390;2023-11-19T06:11:44;14.44;;;9.12;;
56680;SDS011;42558;52.388;13.390;2023-11-19T06:14:14;15.77;;;9.12;;
56680;SDS011;42558;52.388;13.390;2023-11-19T06:16:44;15.77;;;9.31;;
56680;SDS011;42558;52.388;13.390;2023-11-19T06:19:14;15.77;;;9.31;;
56680;SDS011;42558;52.388;13.390;2023-11-19T06:21:44;14.06;;;7.79;;
56680;SDS011;42558;52.388;13.390;2023-11-19T06:24:14;14.25;;;8.36;;
56680;SDS011;42558;52.388;13.390;2023-11-19T06:26:44;16.15;;;8.93;;
56680;SDS011;42558;52.388;13.390;2023-11-19T06:29:14;14.44;;;8.55;;
56680;SDS011;42558;52.388;13.390;2023-11-19T06:31:47;13.68;;;8.36;;
56680;SDS011;42558;52.388;13.390;2023-11-19T06:34:17;14.06;;;7.22;;
56680;SDS011;42558;52.388;13.390;2023-11-19T06:36:47;14.25;;;8.36;;
56680;SDS011;42558;52.388;13.390;2023-11-19T06:39:17;12.92;;;7.79;;
56680;SDS011;42558;52.388;13.390;2023-11-19T06:41:47;12.92;;;9.12;;
56680;SDS011;42558;52.388;13.390;2023-11-19T06:44:18;14.06;;;7.79;;
56680;SDS011;42558;52.388;13.390;2023-11-19T06:46:48;12.73;;;8.17;;
56680;SDS011;42558;52.388;13.390;2023-11-19T06:49:18;15.01;;;7.98;;
56680;SDS011;42558;52.388;13.390;2023-11-19T06:51:48;15.20;;;7.79;;
56680;SDS011;42558;52.388;13.390;2023-11-19T06:54:18;14.82;;;8.36;;
56680;SDS011;42558;52.388;13.390;2023-11-19T06:56:48;11.59;;;7.79;;
56680;SDS011;42558;52.388;13.390;2023-11-19T06:59:18;13.49;;;8.36;;
56680;SDS011;42558;52.388;13.390;2023-11-19T07:01:48;13.49;;;8.55;;
56680;SDS011;42558;52.388;13.390;2023-11-19T07:04:18;15.58;;;8.55;;
56680;SDS011;42558;52.388;13.390;2023-11-19T07:06:48;14.25;;;8.74;;
56680;SDS011;42558;52.388;13.390;2023-11-19T07:09:17;13.87;;;8.36;;
56680;SDS011;42558;52.388;13.390;2023-11-19T07:11:45;14.44;;;8.17;;
56680;SDS011;42558;52.388;13.390;2023-11-19T07:14:13;13.68;;;7.60;;
56680;SDS011;42558;52.388;13.390;2023-11-19T07:16:42;13.49;;;8.17;;
56680;SDS011;42558;52.388;13.390;2023-11-19T07:19:10;16.34;;;7.60;;
56680;SDS011;42558;52.388;13.390;2023-11-19T07:21:42;11.21;;;6.84;;
56680;SDS011;42558;52.388;13.390;2023-11-19T07:24:13;12.16;;;7.79;;
56680;SDS011;42558;52.388;13.390;2023-11-19T07:26:46;12.92;;;7.60;;
56680;SDS011;42558;52.388;13.390;2023-11-19T07:29:16;13.68;;;7.79;;
56680;SDS011;42558;52.388;13.390;2023-11-19T07:31:58;16.34;;;7.41;;
56680;SDS011;42558;52.388;13.390;2023-11-19T07:34:28;12.54;;;7.98;;
56680;SDS011;42558;52.388;13.390;2023-11-19T07:36:58;14.82;;;8.36;;
56680;SDS011;42558;52.388;13.390;2023-11-19T07:39:32;14.06;;;8.17;;
56680;SDS011;42558;52.388;13.390;2023-11-19T07:42:02;13.87;;;7.79;;
56680;SDS011;42558;52.388;13.390;2023-11-19T07:44:32;12.73;;;7.60;;
56680;SDS011;42558;52.388;13.390;2023-11-19T07:47:01;12.54;;;7.22;;
56680;SDS011;42558;52.388;13.390;2023-11-19T07:49:29;13.30;;;7.79;;
56680;SDS011;42558;52.388;13.390;2023-11-19T07:51:58;11.59;;;7.03;;
56680;SDS011;42558;52.388;13.390;2023-11-19T07:54:27;13.30;;;7.79;;
56680;SDS011;42558;52.388;13.390;2023-11-19T07:56:54;12.54;;;6.84;;
56680;SDS011;42558;52.388;13.390;2023-11-19T07:59:23;13.49;;;7.60;;
56680;SDS011;42558;52.388;13.390;2023-11-19T08:01:51;12.73;;;7.03;;
56680;SDS011;42558;52.388;13.390;2023-11-19T08:04:20;11.02;;;6.46;;
56680;SDS011;42558;52.388;13.390;2023-11-19T08:06:48;14.82;;;6.84;;
56680;SDS011;42558;52.388;13.390;2023-11-19T08:09:17;11.40;;;6.65;;
56680;SDS011;42558;52.388;13.390;2023-11-19T08:11:45;14.44;;;7.60;;
56680;SDS011;42558;52.388;13.390;2023-11-19T08:14:13;12.35;;;6.46;;
56680;SDS011;42558;52.388;13.390;2023-11-19T08:16:42;10.83;;;4.94;;
56680;SDS011;42558;52.388;13.390;2023-11-19T08:19:10;11.40;;;5.70;;
56680;SDS011;42558;52.388;13.390;2023-11-19T08:21:39;11.40;;;6.08;;
56680;SDS011;42558;52.388;13.390;2023-11-19T08:24:07;10.83;;;5.70;;
56680;SDS011;42558;52.388;13.390;2023-11-19T08:26:36;10.45;;;5.89;;
56680;SDS011;42558;52.388;13.390;2023-11-19T08:29:04;11.40;;;5.89;;
56680;SDS011;42558;52.388;13.390;2023-11-19T08:31:33;10.64;;;5.32;;
56680;SDS011;42558;52.388;13.390;2023-11-19T08:34:01;8.55;;;4.75;;
56680;SDS011;42558;52.388;13.390;2023-11-19T08:36:29;11.21;;;5.13;;
56680;SDS011;42558;52.388;13.390;2023-11-19T08:38:58;9.50;;;5.89;;
56680;SDS011;42558;52.388;13.390;2023-11-19T08:41:26;8.93;;;3.99;;
56680;SDS011;42558;52.388;13.390;2023-11-19T08:43:55;8.74;;;4.56;;
56680;SDS011;42558;52.388;13.390;2023-11-19T08:46:23;10.26;;;4.94;;
56680;SDS011;42558;52.388;13.390;2023-11-19T08:48:52;9.88;;;4.94;;
56680;SDS011;42558;52.388;13.390;2023-11-19T08:51:20;10.45;;;5.51;;
56680;SDS011;42558;52.388;13.390;2023-11-19T08:53:49;9.50;;;4.37;;
56680;SDS011;42558;52.388;13.390;2023-11-19T08:56:17;8.17;;;4.56;;
56680;SDS011;42558;52.388;13.390;2023-11-19T08:58:45;10.26;;;4.75;;
56680;SDS011;42558;52.388;13.390;2023-11-19T09:04:44;10.64;;;4.94;;
56680;SDS011;42558;52.388;13.390;2023-11-19T09:07:14;10.45;;;4.37;;
56680;SDS011;42558;52.388;13.390;2023-11-19T09:09:44;8.93;;;4.75;;
56680;SDS011;42558;52.388;13.390;2023-11-19T09:12:14;7.98;;;3.99;;
56680;SDS011;42558;52.388;13.390;2023-11-19T09:14:43;8.93;;;4.75;;
56680;SDS011;42558;52.388;13.390;2023-11-19T09:17:15;9.31;;;4.37;;
56680;SDS011;42558;52.388;13.390;2023-11-19T09:19:45;8.74;;;3.99;;
56680;SDS011;42558;52.388;13.390;2023-11-19T09:22:15;7.60;;;3.80;;
56680;SDS011;42558;52.388;13.390;2023-11-19T09:24:46;9.88;;;3.99;;
56680;SDS011;42558;52.388;13.390;2023-11-19T09:27:18;7.03;;;3.42;;
56680;SDS011;42558;52.388;13.390;2023-11-19T09:29:48;8.93;;;3.99;;
56680;SDS011;42558;52.388;13.390;2023-11-19T09:32:19;7.79;;;3.80;;
56680;SDS011;42558;52.388;13.390;2023-11-19T09:34:49;6.84;;;3.61;;
56680;SDS011;42558;52.388;13.390;2023-11-19T09:37:19;9.31;;;4.37;;
56680;SDS011;42558;52.388;13.390;2023-11-19T09:39:51;9.31;;;3.99;;
56680;SDS011;42558;52.388;13.390;2023-11-19T09:42:21;8.55;;;4.37;;
56680;SDS011;42558;52.388;13.390;2023-11-19T09:44:51;11.02;;;4.56;;
56680;SDS011;42558;52.388;13.390;2023-11-19T09:47:22;10.64;;;4.75;;
56680;SDS011;42558;52.388;13.390;2023-11-19T09:49:52;8.93;;;3.80;;
56680;SDS011;42558;52.388;13.390;2023-11-19T09:52:27;8.74;;;3.80;;
56680;SDS011;42558;52.388;13.390;2023-11-19T09:54:57;12.54;;;3.42;;
56680;SDS011;42558;52.388;13.390;2023-11-19T09:57:25;7.98;;;2.66;;
56680;SDS011;42558;52.388;13.390;2023-11-19T09:59:56;12.54;;;2.85;;
56680;SDS011;42558;52.388;13.390;2023-11-19T10:02:26;9.31;;;3.04;;
56680;SDS011;42558;52.388;13.390;2023-11-19T10:05:04;9.50;;;2.28;;
56680;SDS011;42558;52.388;13.390;2023-11-19T10:07:36;7.79;;;2.28;;
56680;SDS011;42558;52.388;13.390;2023-11-19T10:10:05;6.27;;;2.28;;
56680;SDS011;42558;52.388;13.390;2023-11-19T10:12:36;7.60;;;2.09;;
56680;SDS011;42558;52.388;13.390;2023-11-19T10:15:06;6.84;;;2.28;;
56680;SDS011;42558;52.388;13.390;2023-11-19T10:17:46;6.46;;;1.90;;
56680;SDS011;42558;52.388;13.390;2023-11-19T10:20:17;13.30;;;2.85;;
56680;SDS011;42558;52.388;13.390;2023-11-19T10:22:47;8.55;;;1.90;;
56680;SDS011;42558;52.388;13.390;2023-11-19T10:25:26;8.74;;;2.66;;
56680;SDS011;42558;52.388;13.390;2023-11-19T10:27:57;8.74;;;2.47;;
56680;SDS011;42558;52.388;13.390;2023-11-19T10:30:28;7.03;;;2.47;;
56680;SDS011;42558;52.388;13.390;2023-11-19T10:33:12;6.65;;;2.28;;
56680;SDS011;42558;52.388;13.390;2023-11-19T10:35:55;8.93;;;2.09;;
56680;SDS011;42558;52.388;13.390;2023-11-19T10:38:32;7.60;;;1.90;;
56680;SDS011;42558;52.388;13.390;2023-11-19T10:41:03;9.12;;;3.04;;
56680;SDS011;42558;52.388;13.390;2023-11-19T10:43:44;8.55;;;2.66;;
56680;SDS011;42558;52.388;13.390;2023-11-19T10:46:14;8.36;;;3.04;;
56680;SDS011;42558;52.388;13.390;2023-11-19T10:48:49;8.55;;;2.66;;
56680;SDS011;42558;52.388;13.390;2023-11-19T10:51:19;9.31;;;3.04;;
56680;SDS011;42558;52.388;13.390;2023-11-19T10:53:53;12.35;;;2.85;;
56680;SDS011;42558;52.388;13.390;2023-11-19T10:56:33;9.88;;;2.85;;
56680;SDS011;42558;52.388;13.390;2023-11-19T10:59:04;8.93;;;2.47;;
56680;SDS011;42558;52.388;13.390;2023-11-19T11:01:53;9.31;;;3.23;;
56680;SDS011;42558;52.388;13.390;2023-11-19T11:04:25;10.26;;;2.66;;
56680;SDS011;42558;52.388;13.390;2023-11-19T11:06:58;13.30;;;2.66;;
56680;SDS011;42558;52.388;13.390;2023-11-19T11:09:27;9.50;;;2.66;;
56680;SDS011;42558;52.388;13.390;2023-11-19T11:11:57;10.64;;;2.66;;
56680;SDS011;42558;52.388;13.390;2023-11-19T11:14:28;12.54;;;2.85;;
56680;SDS011;42558;52.388;13.390;2023-11-19T11:17:01;13.49;;;3.42;;
56680;SDS011;42558;52.388;13.390;2023-11-19T11:19:31;10.45;;;2.66;;
56680;SDS011;42558;52.388;13.390;2023-11-19T11:22:02;15.01;;;3.23;;
56680;SDS011;42558;52.388;13.390;2023-11-19T11:25:07;12.54;;;3.04;;
56680;SDS011;42558;52.388;13.390;2023-11-19T11:31:21;15.58;;;3.61;;
56680;SDS011;42558;52.388;13.390;2023-11-19T11:34:12;15.01;;;3.99;;
56680;SDS011;42558;52.388;13.390;2023-11-19T11:37:17;15.39;;;4.18;;
56680;SDS011;42558;52.388;13.390;2023-11-19T11:39:53;16.91;;;3.99;;
56680;SDS011;42558;52.388;13.390;2023-11-19T11:45:04;16.15;;;3.99;;
56680;SDS011;42558;52.388;13.390;2023-11-19T11:50:16;11.59;;;4.56;;
56680;SDS011;42558;52.388;13.390;2023-11-19T11:55:37;12.35;;;5.13;;
56680;SDS011;42558;52.388;13.390;2023-11-19T11:58:31;10.64;;;4.94;;
56680;SDS011;42558;52.388;13.390;2023-11-19T12:01:04;14.63;;;4.75;;
56680;SDS011;42558;52.388;13.390;2023-11-19T12:03:37;17.67;;;4.75;;
56680;SDS011;42558;52.388;13.390;2023-11-19T12:06:08;15.20;;;4.37;;
56680;SDS011;42558;52.388;13.390;2023-11-19T12:08:38;16.72;;;3.80;;
56680;SDS011;42558;52.388;13.390;2023-11-19T12:11:11;24.32;;;5.13;;
56680;SDS011;42558;52.388;13.390;2023-11-19T12:13:47;14.63;;;4.37;;
56680;SDS011;42558;52.388;13.390;2023-11-19T12:16:25;12.54;;;3.99;;
56680;SDS011;42558;52.388;13.390;2023-11-19T12:19:02;19.95;;;5.70;;
56680;SDS011;42558;52.388;13.390;2023-11-19T12:21:37;16.34;;;4.94;;
56680;SDS011;42558;52.388;13.390;2023-11-19T12:24:08;20.52;;;4.94;;
56680;SDS011;42558;52.388;13.390;2023-11-19T12:26:39;15.96;;;4.56;;
56680;SDS011;42558;52.388;13.390;2023-11-19T12:29:10;17.67;;;4.56;;
56680;SDS011;42558;52.388;13.390;2023-11-19T12:31:44;21.66;;;5.32;;
56680;SDS011;42558;52.388;13.390;2023-11-19T12:34:14;20.14;;;6.27;;
56680;SDS011;42558;52.388;13.390;2023-11-19T12:36:44;19.76;;;4.94;;
56680;SDS011;42558;52.388;13.390;2023-11-19T12:39:14;22.04;;;6.46;;
56680;SDS011;42558;52.388;13.390;2023-11-19T12:41:51;22.04;;;5.89;;
56680;SDS011;42558;52.388;13.390;2023-11-19T12:44:22;22.42;;;6.08;;
56680;SDS011;42558;52.388;13.390;2023-11-19T12:47:06;20.14;;;4.94;;
56680;SDS011;42558;52.388;13.390;2023-11-19T12:49:37;20.14;;;5.51;;
56680;SDS011;42558;52.388;13.390;2023-11-19T12:52:13;21.28;;;4.56;;
56680;SDS011;42558;52.388;13.390;2023-11-19T12:54:43;20.52;;;5.70;;
56680;SDS011;42558;52.388;13.390;2023-11-19T12:57:13;21.66;;;4.94;;
56680;SDS011;42558;52.388;13.390;2023-11-19T12:59:43;22.99;;;5.13;;
56680;SDS011;42558;52.388;13.390;2023-11-19T13:02:12;31.35;;;6.08;;
56680;SDS011;42558;52.388;13.390;2023-11-19T13:04:42;19.76;;;4.75;;
56680;SDS011;42558;52.388;13.390;2023-11-19T13:07:12;22.61;;;5.70;;
56680;SDS011;42558;52.388;13.390;2023-11-19T13:09:42;22.04;;;5.32;;
56680;SDS011;42558;52.388;13.390;2023-11-19T13:12:14;32.49;;;5.89;;
56680;SDS011;42558;52.388;13.390;2023-11-19T13:14:46;26.22;;;5.89;;
56680;SDS011;42558;52.388;13.390;2023-11-19T13:17:17;24.13;;;4.94;;
56680;SDS011;42558;52.388;13.390;2023-11-19T13:19:47;24.13;;;6.08;;
56680;SDS011;42558;52.388;13.390;2023-11-19T13:22:18;25.27;;;5.51;;
56680;SDS011;42558;52.388;13.390;2023-11-19T13:24:47;23.94;;;5.89;;
56680;SDS011;42558;52.388;13.390;2023-11-19T13:27:17;24.32;;;6.08;;
56680;SDS011;42558;52.388;13.390;2023-11-19T13:29:47;26.41;;;5.89;;
56680;SDS011;42558;52.388;13.390;2023-11-19T13:32:17;21.47;;;5.70;;
56680;SDS011;42558;52.388;13.390;2023-11-19T13:34:47;24.70;;;5.51;;
56680;SDS011;42558;52.388;13.390;2023-11-19T13:37:17;25.65;;;5.89;;
56680;SDS011;42558;52.388;13.390;2023-11-19T13:39:46;25.27;;;5.89;;
56680;SDS011;42558;52.388;13.390;2023-11-19T13:42:13;29.26;;;5.51;;
56680;SDS011;42558;52.388;13.390;2023-11-19T13:44:41;20.52;;;5.89;;
56680;SDS011;42558;52.388;13.390;2023-11-19T13:47:09;24.32;;;5.70;;
56680;SDS011;42558;52.388;13.390;2023-11-19T13:49:37;24.51;;;5.51;;
56680;SDS011;42558;52.388;13.390;2023-11-19T13:52:06;18.24;;;5.70;;
56680;SDS011;42558;52.388;13.390;2023-11-19T13:54:34;21.66;;;5.70;;
56680;SDS011;42558;52.388;13.390;2023-11-19T13:57:03;20.90;;;5.89;;
56680;SDS011;42558;52.388;13.390;2023-11-19T13:59:31;25.46;;;6.46;;
56680;SDS011;42558;52.388;13.390;2023-11-19T14:02:00;30.02;;;7.79;;
56680;SDS011;42558;52.388;13.390;2023-11-19T14:04:28;31.54;;;6.84;;
56680;SDS011;42558;52.388;13.390;2023-11-19T14:06:56;29.07;;;6.46;;
56680;SDS011;42558;52.388;13.390;2023-11-19T14:09:25;25.08;;;5.70;;
56680;SDS011;42558;52.388;13.390;2023-11-19T14:11:53;27.93;;;6.27;;
56680;SDS011;42558;52.388;13.390;2023-11-19T14:14:22;24.51;;;5.13;;
56680;SDS011;42558;52.388;13.390;2023-11-19T14:16:50;25.65;;;6.27;;
56680;SDS011;42558;52.388;13.390;2023-11-19T14:19:18;28.12;;;5.70;;
56680;SDS011;42558;52.388;13.390;2023-11-19T14:21:47;25.84;;;6.65;;
56680;SDS011;42558;52.388;13.390;2023-11-19T14:24:15;23.94;;;5.70;;
56680;SDS011;42558;52.388;13.390;2023-11-19T14:26:46;25.84;;;4.75;;
56680;SDS011;42558;52.388;13.390;2023-11-19T14:29:20;28.12;;;5.32;;
56680;SDS011;42558;52.388;13.390;2023-11-19T14:31:50;19.38;;;4.37;;
56680;SDS011;42558;52.388;13.390;2023-11-19T14:34:20;26.03;;;5.89;;
56680;SDS011;42558;52.388;13.390;2023-11-19T14:36:50;25.27;;;6.46;;
56680;SDS011;42558;52.388;13.390;2023-11-19T14:39:20;23.18;;;4.37;;
56680;SDS011;42558;52.388;13.390;2023-11-19T14:41:50;26.79;;;4.94;;
56680;SDS011;42558;52.388;13.390;2023-11-19T14:44:21;22.61;;;4.56;;
56680;SDS011;42558;52.388;13.390;2023-11-19T14:46:52;24.51;;;5.51;;
56680;SDS011;42558;52.388;13.390;2023-11-19T14:49:21;26.22;;;5.89;;
56680;SDS011;42558;52.388;13.390;2023-11-19T14:51:50;23.94;;;5.32;;
56680;SDS011;42558;52.388;13.390;2023-11-19T14:54:18;31.16;;;6.84;;
56680;SDS011;42558;52.388;13.390;2023-11-19T14:56:46;24.89;;;4.94;;